Time;durP1;ratioP1;P1;durP2;ratioP2;P2;SDS_P1;SDS_P2;PMS_P1;PMS_P2;Temp;Humidity;BMP_temperature;BMP_pressure;BME280_temperature;BME280_humidity;BME280_pressure;Samples;Min_cycle;Max_cycle;Signal;HPM_P1;HPM_P2
2023/01/22 00:02:22;;;;;;;11.37;10.30;;;1.10;20.00;;;;;;5052344;28;20250;-63
2023/01/22 00:04:47;;;;;;;11.37;9.97;;;1.10;1.00;;;;;;5052259;28;20195;-63
2023/01/22 00:07:14;;;;;;;12.83;10.23;;;1.10;1.00;;;;;;5067671;28;20182;-64
2023/01/22 00:09:40;;;;;;;12.40;9.63;;;1.10;1.00;;;;;;5071835;28;20217;-63
2023/01/22 00:12:06;;;;;;;8.70;8.20;;;1.10;1.00;;;;;;5056872;28;20302;-64
2023/01/22 00:14:31;;;;;;;13.17;11.80;;;1.10;1.00;;;;;;5052419;28;20277;-63
2023/01/22 00:16:57;;;;;;;10.77;9.77;;;1.10;1.00;;;;;;5063885;28;20596;-63
2023/01/22 00:19:23;;;;;;;10.03;9.33;;;1.00;1.00;;;;;;5071803;28;20178;-64
2023/01/22 00:21:48;;;;;;;16.67;10.43;;;1.00;1.00;;;;;;5061397;28;20186;-64
2023/01/22 00:24:14;;;;;;;11.03;9.97;;;1.00;1.00;;;;;;5051711;28;20729;-64
2023/01/22 00:26:40;;;;;;;10.03;9.43;;;1.00;1.00;;;;;;5060098;28;20189;-63
2023/01/22 00:29:05;;;;;;;11.80;10.67;;;1.00;1.00;;;;;;5071603;28;20584;-64
2023/01/22 00:31:31;;;;;;;16.13;10.07;;;1.00;1.00;;;;;;5064971;28;20546;-63
2023/01/22 00:33:57;;;;;;;11.07;9.80;;;1.00;1.00;;;;;;5051549;28;20203;-64
2023/01/22 00:36:23;;;;;;;11.80;10.60;;;1.00;1.00;;;;;;5055763;28;20174;-63
2023/01/22 00:38:49;;;;;;;9.87;9.27;;;1.00;1.00;;;;;;5071611;28;20174;-64
2023/01/22 00:41:16;;;;;;;11.17;10.10;;;1.10;1.00;;;;;;5068418;28;20182;-64
2023/01/22 00:43:42;;;;;;;11.50;9.97;;;1.10;1.00;;;;;;5051512;28;20609;-63
2023/01/22 00:46:10;;;;;;;11.80;10.23;;;1.10;1.00;;;;;;5052326;28;20189;-63
2023/01/22 00:48:36;;;;;;;12.10;11.00;;;1.10;1.00;;;;;;5071790;28;20182;-64
2023/01/22 00:51:03;;;;;;;11.47;10.47;;;1.10;1.00;;;;;;5071031;28;20182;-63
2023/01/22 00:53:28;;;;;;;10.20;9.23;;;1.10;1.00;;;;;;5071062;28;20205;-64
2023/01/22 00:56:02;;;;;;;9.63;8.90;;;1.10;1.00;;;;;;5071519;28;20167;-64
2023/01/22 00:58:28;;;;;;;15.90;11.47;;;1.10;1.00;;;;;;5051105;28;20181;-63
2023/01/22 01:00:54;;;;;;;10.33;9.37;;;1.10;1.00;;;;;;5051067;28;20253;-64
2023/01/22 01:03:26;;;;;;;10.83;9.87;;;1.10;1.00;;;;;;5068591;28;20593;-64
2023/01/22 01:06:21;;;;;;;11.73;10.63;;;1.10;1.00;;;;;;5071362;28;20178;-63
2023/01/22 01:08:48;;;;;;;11.90;10.53;;;1.10;1.00;;;;;;5023569;28;20191;-64
2023/01/22 01:11:24;;;;;;;11.73;10.90;;;1.10;99.90;;;;;;5035322;28;20191;-63
2023/01/22 01:13:51;;;;;;;8.93;8.33;;;1.10;99.90;;;;;;5035536;28;20310;-64
2023/01/22 01:16:19;;;;;;;11.17;10.23;;;1.10;99.90;;;;;;5035402;28;20175;-64
2023/01/22 01:18:45;;;;;;;10.77;9.97;;;1.10;1.00;;;;;;5073333;28;20186;-63
2023/01/22 01:21:11;;;;;;;13.83;9.47;;;1.10;1.00;;;;;;5075082;28;20170;-63
2023/01/22 01:23:37;;;;;;;10.43;9.53;;;1.00;1.00;;;;;;5057870;28;20190;-64
2023/01/22 01:26:08;;;;;;;12.50;10.50;;;1.00;1.00;;;;;;5055353;28;20187;-63
2023/01/22 01:28:35;;;;;;;12.33;11.10;;;1.00;1.00;;;;;;5075368;28;20205;-63
2023/01/22 01:31:06;;;;;;;12.77;11.57;;;1.00;1.00;;;;;;5073651;28;20670;-63
2023/01/22 01:33:32;;;;;;;12.53;9.47;;;0.90;1.00;;;;;;5055129;28;20202;-63
2023/01/22 01:36:06;;;;;;;11.87;10.67;;;1.00;1.00;;;;;;5054996;28;20182;-64
2023/01/22 01:38:32;;;;;;;10.23;9.37;;;1.00;1.00;;;;;;5035492;28;20184;-64
2023/01/22 01:40:58;;;;;;;10.20;9.50;;;0.90;1.00;;;;;;5034943;28;20176;-64
2023/01/22 01:43:24;;;;;;;10.00;9.07;;;1.00;1.00;;;;;;5074071;28;20186;-63
2023/01/22 01:45:49;;;;;;;9.87;9.23;;;0.90;1.00;;;;;;5077459;23;20226;-64
2023/01/22 01:48:23;;;;;;;11.90;10.73;;;1.00;1.00;;;;;;5072410;28;20170;-62
2023/01/22 01:51:21;;;;;;;10.27;9.43;;;1.00;1.00;;;;;;5074458;28;20162;-65
2023/01/22 01:53:49;;;;;;;11.60;10.53;;;1.00;1.00;;;;;;5034206;28;20223;-61
2023/01/22 01:56:22;;;;;;;10.90;10.03;;;1.00;1.00;;;;;;5035055;28;20167;-61
2023/01/22 01:58:52;;;;;;;8.50;7.90;;;1.00;1.00;;;;;;5034745;28;20218;-62
2023/01/22 02:01:18;;;;;;;10.63;9.57;;;1.00;1.00;;;;;;5034655;28;20183;-63
2023/01/22 02:03:46;;;;;;;9.97;9.20;;;1.00;1.00;;;;;;5054513;28;20185;-65
2023/01/22 02:06:14;;;;;;;10.50;9.60;;;1.00;1.00;;;;;;5054394;28;20606;-63
2023/01/22 02:08:43;;;;;;;11.30;10.43;;;1.00;1.00;;;;;;5073221;28;20550;-63
2023/01/22 02:11:09;;;;;;;11.27;10.37;;;1.00;1.00;;;;;;5073455;28;20197;-62
2023/01/22 02:13:38;;;;;;;10.63;9.87;;;0.90;1.00;;;;;;5056277;28;20585;-62
2023/01/22 02:16:04;;;;;;;10.03;9.43;;;0.90;1.00;;;;;;5054104;28;20190;-63
2023/01/22 02:18:30;;;;;;;8.97;8.37;;;0.90;1.00;;;;;;5070500;28;20616;-63
2023/01/22 02:20:59;;;;;;;11.20;10.37;;;0.90;1.00;;;;;;5072807;28;20170;-62
2023/01/22 02:23:25;;;;;;;13.20;11.30;;;0.90;1.00;;;;;;5061240;28;20286;-63
2023/01/22 02:25:51;;;;;;;11.63;10.73;;;0.90;1.00;;;;;;5073990;28;20194;-62
2023/01/22 02:28:17;;;;;;;13.17;10.67;;;0.80;1.00;;;;;;5060138;28;20201;-63
2023/01/22 02:30:43;;;;;;;14.33;12.57;;;0.80;1.00;;;;;;5053840;28;20257;-66
2023/01/22 02:33:09;;;;;;;11.97;10.87;;;0.80;1.00;;;;;;5065777;28;20561;-62
2023/01/22 02:35:35;;;;;;;12.10;11.10;;;0.80;1.00;;;;;;5074296;28;20185;-61
2023/01/22 02:38:01;;;;;;;11.07;9.77;;;0.80;1.00;;;;;;5063370;28;20189;-63
2023/01/22 02:40:28;;;;;;;9.87;9.30;;;0.80;1.00;;;;;;5053909;28;20163;-64
2023/01/22 02:42:55;;;;;;;12.00;10.73;;;0.80;1.00;;;;;;5062264;28;20224;-61
2023/01/22 02:45:21;;;;;;;10.33;9.37;;;0.80;1.00;;;;;;5073705;28;20214;-60
2023/01/22 02:47:46;;;;;;;12.00;10.10;;;0.80;1.00;;;;;;5066361;28;20312;-61
2023/01/22 02:50:12;;;;;;;9.53;8.83;;;0.90;1.00;;;;;;5053202;28;20600;-61
2023/01/22 02:52:38;;;;;;;10.00;9.30;;;0.80;1.00;;;;;;5058834;28;20202;-63
2023/01/22 02:55:04;;;;;;;12.73;11.50;;;0.80;1.00;;;;;;5073548;28;20563;-63
2023/01/22 02:57:30;;;;;;;14.23;10.43;;;0.80;3.90;;;;;;5076790;28;20648;-63
2023/01/22 02:59:56;;;;;;;12.90;11.63;;;0.80;12.90;;;;;;5061793;28;20239;-63
2023/01/22 03:02:22;;;;;;;10.83;9.80;;;0.80;20.70;;;;;;5057389;28;20171;-63
2023/01/22 03:04:49;;;;;;;10.57;9.77;;;0.80;19.30;;;;;;5073446;28;20243;-61
2023/01/22 03:07:16;;;;;;;12.23;11.07;;;0.70;26.70;;;;;;5072866;28;20704;-60
2023/01/22 03:09:42;;;;;;;9.07;8.53;;;0.70;29.30;;;;;;5053262;28;20171;-63
2023/01/22 03:12:07;;;;;;;10.60;9.87;;;0.80;39.20;;;;;;5053233;28;20561;-61
2023/01/22 03:22:46;;;;;;;10.60;9.83;;;0.70;12.60;;;;;;5040377;28;20185;-60
2023/01/22 03:25:11;;;;;;;10.73;9.67;;;0.80;11.90;;;;;;5072924;28;20206;-61
2023/01/22 03:28:07;;;;;;;9.60;8.90;;;0.70;7.60;;;;;;5071321;28;20546;-61
2023/01/22 03:30:23;;;;;;;8.47;7.93;;;0.70;7.70;;;;;;5052642;28;20272;-61
2023/01/22 03:32:49;;;;;;;11.67;10.67;;;0.70;1.00;;;;;;5054873;28;20207;-62
2023/01/22 03:35:14;;;;;;;10.93;10.20;;;0.70;1.00;;;;;;5072832;28;20190;-63
2023/01/22 03:37:40;;;;;;;23.37;9.47;;;0.80;1.00;;;;;;5071994;28;20170;-61
2023/01/22 03:40:06;;;;;;;11.33;10.43;;;0.80;1.00;;;;;;5052495;28;20889;-64
2023/01/22 03:42:31;;;;;;;12.70;10.57;;;0.80;1.00;;;;;;5052835;28;20174;-63
2023/01/22 03:44:57;;;;;;;13.13;11.37;;;0.80;1.00;;;;;;5070983;28;20566;-62
2023/01/22 03:47:24;;;;;;;11.80;10.67;;;0.80;1.00;;;;;;5072613;28;20623;-63
2023/01/22 03:49:49;;;;;;;10.63;9.77;;;0.80;1.00;;;;;;5054439;28;20244;-63
2023/01/22 03:52:15;;;;;;;11.13;10.23;;;0.80;1.00;;;;;;5052280;28;20202;-63
2023/01/22 03:54:40;;;;;;;9.23;8.67;;;0.80;1.00;;;;;;5068014;28;20190;-63
2023/01/22 03:57:06;;;;;;;9.83;9.23;;;0.80;1.00;;;;;;5072330;28;20182;-63
2023/01/22 03:59:32;;;;;;;10.93;10.03;;;0.80;1.00;;;;;;5060210;28;20531;-63
2023/01/22 04:01:57;;;;;;;12.40;10.50;;;0.80;1.00;;;;;;5052074;28;20182;-63
2023/01/22 04:04:23;;;;;;;11.37;10.03;;;0.80;1.00;;;;;;5052126;28;20236;-63
2023/01/22 04:06:48;;;;;;;10.97;10.17;;;0.80;1.00;;;;;;5052274;28;20199;-63
2023/01/22 04:09:14;;;;;;;11.70;9.73;;;0.80;1.00;;;;;;5052188;28;20194;-63
2023/01/22 04:11:39;;;;;;;12.40;10.57;;;0.80;1.00;;;;;;5052169;28;20178;-63
2023/01/22 04:14:05;;;;;;;12.67;11.57;;;0.80;1.00;;;;;;5071052;28;20216;-63
2023/01/22 04:16:31;;;;;;;11.20;10.33;;;0.80;1.00;;;;;;5072015;28;20170;-62
2023/01/22 04:18:56;;;;;;;10.07;9.27;;;0.80;1.00;;;;;;5053885;28;20210;-63
2023/01/22 04:21:22;;;;;;;9.93;9.27;;;0.80;1.00;;;;;;5050525;28;20186;-64
2023/01/22 04:23:47;;;;;;;10.57;9.77;;;0.80;1.00;;;;;;5067767;28;20243;-63
2023/01/22 04:26:13;;;;;;;9.67;8.93;;;0.80;1.00;;;;;;5071680;28;20209;-63
2023/01/22 04:28:39;;;;;;;9.97;9.27;;;0.80;1.00;;;;;;5057445;28;20612;-60
2023/01/22 04:31:04;;;;;;;10.73;10.10;;;0.80;1.00;;;;;;5051394;28;20178;-63
2023/01/22 04:33:31;;;;;;;10.40;9.60;;;0.80;1.00;;;;;;5064197;28;20574;-63
2023/01/22 04:35:56;;;;;;;12.73;9.70;;;0.80;1.00;;;;;;5071668;28;20217;-63
2023/01/22 04:38:22;;;;;;;15.40;12.20;;;0.80;1.00;;;;;;5060790;28;20222;-63
2023/01/22 04:40:47;;;;;;;10.23;9.53;;;0.80;1.00;;;;;;5051359;28;20170;-61
2023/01/22 04:43:13;;;;;;;9.57;8.87;;;0.80;1.00;;;;;;5060200;28;20276;-63
2023/01/22 04:45:39;;;;;;;11.60;10.53;;;0.80;1.00;;;;;;5071551;28;20213;-63
2023/01/22 04:48:04;;;;;;;11.67;10.30;;;0.90;1.00;;;;;;5063944;28;20201;-63
2023/01/22 04:50:32;;;;;;;9.63;8.83;;;0.90;1.00;;;;;;5051206;28;20175;-63
2023/01/22 04:52:58;;;;;;;11.17;9.97;;;0.80;1.00;;;;;;5057186;28;20213;-63
2023/01/22 04:55:25;;;;;;;10.43;9.83;;;0.80;1.00;;;;;;5071428;28;20189;-63
2023/01/22 04:57:58;;;;;;;13.43;10.80;;;0.80;1.00;;;;;;5066813;28;20320;-63
2023/01/22 05:00:26;;;;;;;10.83;9.83;;;0.80;1.00;;;;;;5051064;28;20581;-63
2023/01/22 05:02:56;;;;;;;11.47;10.60;;;0.90;1.00;;;;;;5054330;28;20209;-63
2023/01/22 05:05:22;;;;;;;11.40;10.30;;;0.80;1.00;;;;;;5071441;28;20198;-63
2023/01/22 05:07:48;;;;;;;11.20;10.50;;;0.80;1.00;;;;;;5068392;28;20533;-63
2023/01/22 05:10:14;;;;;;;8.63;8.10;;;0.80;1.00;;;;;;5050873;28;20206;-63
2023/01/22 05:12:39;;;;;;;9.63;9.03;;;0.80;1.00;;;;;;5052400;28;20252;-63
2023/01/22 05:15:05;;;;;;;10.57;9.60;;;0.80;1.00;;;;;;5071177;28;20193;-63
2023/01/22 05:17:31;;;;;;;10.70;9.80;;;0.80;1.00;;;;;;5071369;28;20585;-63
2023/01/22 05:19:56;;;;;;;12.33;11.10;;;0.80;1.00;;;;;;5051119;28;20179;-63
2023/01/22 05:22:22;;;;;;;9.47;8.80;;;0.80;1.00;;;;;;5051193;28;20257;-63
2023/01/22 05:24:48;;;;;;;9.97;9.13;;;0.80;1.00;;;;;;5069000;28;20202;-61
2023/01/22 05:27:13;;;;;;;8.67;8.07;;;0.80;1.00;;;;;;5071391;28;20209;-63
2023/01/22 05:29:39;;;;;;;10.87;10.13;;;0.80;1.00;;;;;;5054739;28;20254;-63
2023/01/22 05:32:05;;;;;;;10.47;9.77;;;0.80;1.00;;;;;;5051110;28;20181;-64
2023/01/22 05:34:30;;;;;;;11.07;10.37;;;0.80;1.00;;;;;;5065055;28;20583;-63
2023/01/22 05:36:56;;;;;;;11.73;10.50;;;0.80;1.00;;;;;;5071313;28;20177;-64
2023/01/22 05:39:21;;;;;;;10.63;9.97;;;0.80;1.00;;;;;;5058382;28;20185;-64
2023/01/22 05:41:47;;;;;;;11.83;10.73;;;0.80;1.00;;;;;;5051160;28;20167;-63
2023/01/22 05:44:13;;;;;;;10.23;9.53;;;0.80;1.00;;;;;;5061963;28;20218;-63
2023/01/22 05:46:39;;;;;;;11.13;10.13;;;0.80;1.00;;;;;;5081228;28;20550;-63
2023/01/22 05:49:06;;;;;;;11.70;10.57;;;0.80;1.00;;;;;;5071467;28;20183;-63
2023/01/22 05:51:32;;;;;;;9.70;9.03;;;0.70;2.50;;;;;;5052847;28;20540;-62
2023/01/22 05:53:57;;;;;;;11.27;10.30;;;0.70;15.10;;;;;;5058338;28;20640;-61
2023/01/22 05:56:23;;;;;;;9.23;8.63;;;0.80;1.00;;;;;;5074391;28;20250;-61
2023/01/22 05:58:49;;;;;;;10.83;10.03;;;0.80;1.00;;;;;;5068477;28;20240;-61
2023/01/22 06:01:15;;;;;;;9.13;8.47;;;0.80;1.00;;;;;;5054451;28;20171;-63
2023/01/22 06:03:42;;;;;;;10.63;9.93;;;0.90;1.00;;;;;;5058785;28;20178;-62
2023/01/22 06:06:11;;;;;;;10.40;9.53;;;0.90;1.00;;;;;;5074453;28;20189;-62
2023/01/22 06:08:37;;;;;;;9.93;9.33;;;0.90;1.00;;;;;;5034463;28;20740;-63
2023/01/22 06:11:06;;;;;;;10.40;8.73;;;0.90;1.00;;;;;;5034315;28;20567;-62
2023/01/22 06:13:32;;;;;;;11.20;9.27;;;0.90;1.00;;;;;;5073305;28;20244;-61
2023/01/22 06:15:59;;;;;;;11.00;10.10;;;0.90;1.00;;;;;;5074376;28;20201;-60
2023/01/22 06:18:25;;;;;;;10.97;10.07;;;0.90;1.00;;;;;;5054631;28;20178;-63
2023/01/22 06:20:51;;;;;;;9.70;9.00;;;0.90;1.00;;;;;;5053902;28;20236;-62
2023/01/22 06:23:17;;;;;;;12.17;11.47;;;0.90;1.00;;;;;;5070183;28;20585;-63
2023/01/22 06:25:43;;;;;;;11.93;10.73;;;1.00;1.00;;;;;;5074108;28;20582;-62
2023/01/22 06:28:09;;;;;;;10.07;9.27;;;1.00;1.00;;;;;;5059130;28;20663;-62
2023/01/22 06:30:36;;;;;;;10.57;9.87;;;0.90;1.00;;;;;;5053552;28;20187;-60
2023/01/22 06:33:01;;;;;;;9.60;8.87;;;0.90;1.00;;;;;;5066786;28;20229;-63
2023/01/22 06:35:27;;;;;;;11.30;10.27;;;0.90;1.00;;;;;;5074009;28;20271;-63
2023/01/22 06:37:53;;;;;;;11.93;10.93;;;0.90;1.00;;;;;;5062401;28;20179;-63
2023/01/22 06:40:19;;;;;;;10.07;9.33;;;0.90;1.00;;;;;;5053386;28;20249;-64
2023/01/22 06:42:44;;;;;;;10.63;9.80;;;0.90;4.30;;;;;;5063404;28;20526;-63
2023/01/22 06:45:10;;;;;;;11.03;10.23;;;1.00;3.60;;;;;;5073663;28;20221;-60
2023/01/22 06:47:36;;;;;;;10.57;9.77;;;1.00;1.00;;;;;;5065798;28;20241;-62
2023/01/22 06:50:02;;;;;;;12.53;11.00;;;1.00;1.00;;;;;;5053255;28;20214;-63
2023/01/22 06:52:27;;;;;;;11.33;10.30;;;1.00;1.00;;;;;;5059456;28;20206;-63
2023/01/22 06:54:53;;;;;;;10.90;10.07;;;1.00;1.00;;;;;;5073517;28;20186;-61
2023/01/22 06:57:19;;;;;;;12.10;11.27;;;1.00;1.00;;;;;;5068774;28;20193;-61
2023/01/22 06:59:44;;;;;;;11.83;10.77;;;1.00;1.00;;;;;;5053187;28;20171;-60
2023/01/22 07:02:16;;;;;;;11.20;10.00;;;1.00;1.00;;;;;;5055961;28;20182;-62
2023/01/22 07:04:42;;;;;;;11.40;10.33;;;1.00;1.00;;;;;;5073577;28;20247;-63
2023/01/22 07:07:07;;;;;;;11.37;10.60;;;1.00;1.00;;;;;;5071307;28;20566;-63
2023/01/22 07:09:33;;;;;;;11.53;10.43;;;1.00;1.00;;;;;;5053257;28;20181;-63
2023/01/22 07:11:59;;;;;;;11.93;11.13;;;1.00;1.00;;;;;;5053102;28;20174;-62
2023/01/22 07:14:25;;;;;;;12.97;12.03;;;1.00;1.00;;;;;;5033308;28;20231;-63
2023/01/22 07:16:51;;;;;;;11.97;10.97;;;1.10;1.00;;;;;;5033234;28;20214;-61
2023/01/22 07:19:16;;;;;;;10.93;10.33;;;1.10;1.00;;;;;;5070085;28;20197;-63
2023/01/22 07:21:42;;;;;;;11.13;10.33;;;1.10;1.00;;;;;;5073206;28;20178;-64
2023/01/22 07:24:09;;;;;;;13.00;11.80;;;1.10;1.00;;;;;;5056305;28;20203;-61
2023/01/22 07:26:34;;;;;;;9.50;8.90;;;1.10;1.00;;;;;;5052869;28;20182;-63
2023/01/22 07:29:01;;;;;;;12.27;11.27;;;1.10;1.00;;;;;;5053116;28;20193;-64
2023/01/22 07:31:27;;;;;;;11.10;10.23;;;1.10;1.00;;;;;;5052291;28;20171;-64
2023/01/22 07:33:53;;;;;;;10.73;10.07;;;1.10;1.00;;;;;;5052880;28;20198;-63
2023/01/22 07:36:18;;;;;;;11.30;10.40;;;1.10;1.00;;;;;;5053148;28;20225;-63
2023/01/22 07:38:44;;;;;;;18.13;10.70;;;1.10;1.00;;;;;;5064106;28;20177;-62
2023/01/22 07:41:09;;;;;;;11.60;10.63;;;1.10;1.00;;;;;;5072379;28;20166;-63
2023/01/22 07:43:35;;;;;;;11.53;10.67;;;1.10;1.00;;;;;;5070947;28;20197;-63
2023/01/22 07:46:02;;;;;;;12.87;11.67;;;1.20;1.00;;;;;;5073083;28;20682;-63
2023/01/22 07:48:28;;;;;;;11.57;10.77;;;1.20;1.00;;;;;;5063752;28;20174;-63
2023/01/22 07:50:58;;;;;;;11.47;10.63;;;1.20;1.00;;;;;;5052150;28;20178;-63
2023/01/22 07:53:23;;;;;;;10.93;10.23;;;1.20;1.00;;;;;;5058307;28;20229;-63
2023/01/22 07:55:49;;;;;;;11.43;10.57;;;1.20;1.00;;;;;;5072236;28;20224;-63
2023/01/22 07:58:15;;;;;;;9.77;9.13;;;1.20;1.00;;;;;;5071689;28;20170;-63
2023/01/22 08:00:40;;;;;;;11.10;10.20;;;1.20;1.00;;;;;;5072012;28;20546;-63
2023/01/22 08:03:09;;;;;;;12.67;11.63;;;1.30;1.00;;;;;;5070583;28;20174;-63
2023/01/22 08:05:35;;;;;;;10.13;9.53;;;1.20;1.00;;;;;;5052811;28;20210;-63
2023/01/22 08:08:00;;;;;;;12.10;11.17;;;1.20;1.00;;;;;;5052106;28;20178;-64
2023/01/22 08:10:26;;;;;;;12.33;11.20;;;1.30;1.00;;;;;;5050617;28;20177;-63
2023/01/22 08:12:52;;;;;;;12.50;11.77;;;1.30;1.00;;;;;;5052960;28;20550;-63
2023/01/22 08:15:17;;;;;;;11.97;11.07;;;1.40;1.00;;;;;;5054415;28;20194;-63
2023/01/22 08:17:43;;;;;;;21.70;11.33;;;1.40;1.00;;;;;;5052246;28;20181;-63
2023/01/22 08:20:09;;;;;;;10.80;10.07;;;1.40;1.00;;;;;;5071204;28;20585;-63
2023/01/22 08:22:35;;;;;;;11.47;10.47;;;1.40;1.00;;;;;;5071974;28;20667;-63
2023/01/22 08:25:01;;;;;;;12.07;11.27;;;1.40;1.00;;;;;;5052341;28;20201;-63
2023/01/22 08:27:26;;;;;;;11.30;10.43;;;1.40;1.00;;;;;;5051958;28;20183;-63
2023/01/22 08:29:52;;;;;;;11.07;9.97;;;1.40;1.00;;;;;;5069536;28;20663;-63
2023/01/22 08:32:18;;;;;;;10.57;9.80;;;1.40;1.00;;;;;;5072006;28;20193;-63
2023/01/22 08:34:44;;;;;;;9.83;9.03;;;1.40;1.00;;;;;;5071624;28;20758;-64
2023/01/22 08:37:10;;;;;;;10.70;9.90;;;1.40;1.00;;;;;;5071857;28;20178;-63
2023/01/22 08:39:35;;;;;;;11.47;10.70;;;1.40;1.00;;;;;;5070750;28;20257;-62
2023/01/22 08:42:01;;;;;;;10.53;9.80;;;1.40;1.00;;;;;;5071751;28;20209;-63
2023/01/22 08:44:26;;;;;;;9.27;8.77;;;1.40;1.00;;;;;;5070841;28;20201;-63
2023/01/22 08:46:52;;;;;;;10.33;9.60;;;1.30;1.00;;;;;;5069804;28;20201;-63
2023/01/22 08:49:20;;;;;;;11.43;10.47;;;1.40;1.00;;;;;;5058194;28;20254;-63
2023/01/22 08:51:45;;;;;;;10.43;9.73;;;1.40;1.00;;;;;;5054334;28;20648;-63
2023/01/22 08:54:11;;;;;;;10.80;10.20;;;1.40;1.00;;;;;;5057029;28;20230;-63
2023/01/22 08:56:36;;;;;;;10.87;10.10;;;1.40;1.00;;;;;;5070618;28;20249;-63
2023/01/22 08:59:05;;;;;;;11.27;10.37;;;1.40;1.00;;;;;;5070991;28;20171;-63
2023/01/22 09:01:32;;;;;;;9.70;9.10;;;1.50;1.00;;;;;;5031635;28;20249;-63
2023/01/22 09:03:57;;;;;;;9.53;9.03;;;1.50;1.00;;;;;;5031211;28;20163;-63
2023/01/22 09:06:23;;;;;;;10.57;9.67;;;1.50;1.00;;;;;;5069252;28;20538;-63
2023/01/22 09:08:49;;;;;;;10.07;9.33;;;1.50;1.00;;;;;;5070922;28;20177;-63
2023/01/22 09:11:15;;;;;;;13.70;12.50;;;1.50;1.00;;;;;;5059968;28;20263;-63
2023/01/22 09:13:41;;;;;;;10.07;9.27;;;1.50;1.00;;;;;;5060183;28;20213;-64
2023/01/22 09:16:09;;;;;;;9.80;9.23;;;1.60;1.00;;;;;;5051309;28;20637;-63
2023/01/22 09:18:36;;;;;;;10.37;9.67;;;1.60;1.00;;;;;;5054075;28;20171;-63
2023/01/22 09:21:03;;;;;;;17.03;13.87;;;1.60;1.00;;;;;;5051168;28;20178;-63
2023/01/22 09:23:28;;;;;;;10.07;9.47;;;1.70;1.00;;;;;;5051382;28;20201;-63
2023/01/22 09:25:54;;;;;;;12.67;11.37;;;1.70;1.00;;;;;;5050766;28;20214;-62
2023/01/22 09:28:20;;;;;;;10.93;10.03;;;1.80;1.00;;;;;;5071104;28;20189;-63
2023/01/22 09:30:45;;;;;;;10.17;9.57;;;1.80;99.90;;;;;;5073325;28;20174;-63
2023/01/22 09:33:11;;;;;;;10.43;9.73;;;1.90;1.00;;;;;;5058009;28;20209;-63
2023/01/22 09:35:36;;;;;;;10.50;9.50;;;1.90;1.00;;;;;;5055593;28;20270;-63
2023/01/22 09:38:04;;;;;;;11.47;9.97;;;1.90;99.90;;;;;;5073661;28;20170;-63
2023/01/22 09:40:38;;;;;;;10.37;9.47;;;2.00;99.90;;;;;;5060752;28;20711;-63
2023/01/22 09:43:06;;;;;;;10.37;9.67;;;2.00;1.00;;;;;;5055097;28;20572;-64
2023/01/22 09:45:36;;;;;;;11.40;10.47;;;2.00;1.00;;;;;;5055100;28;20210;-63
2023/01/22 09:48:08;;;;;;;10.43;9.43;;;2.00;1.00;;;;;;5054755;28;20334;-64
2023/01/22 09:50:34;;;;;;;10.83;9.80;;;2.00;1.00;;;;;;5067053;28;20250;-64
2023/01/22 09:53:06;;;;;;;11.63;10.47;;;2.10;74.60;;;;;;5074568;28;20233;-63
2023/01/22 09:55:43;;;;;;;14.13;11.67;;;2.10;99.90;;;;;;5062771;28;20658;-64
2023/01/22 09:58:15;;;;;;;10.70;9.87;;;2.10;99.90;;;;;;5054724;28;20638;-64
2023/01/22 10:00:46;;;;;;;11.07;10.17;;;2.10;99.90;;;;;;5066712;28;20518;-63
2023/01/22 10:03:39;;;;;;;10.80;9.90;;;2.10;99.90;;;;;;5074546;28;20609;-64
2023/01/22 10:06:21;;;;;;;10.13;9.43;;;2.20;99.90;;;;;;5059258;28;20213;-63
2023/01/22 10:08:59;;;;;;;9.40;8.70;;;2.30;99.90;;;;;;5054425;28;20206;-64
2023/01/22 10:11:25;;;;;;;11.03;10.07;;;2.30;99.90;;;;;;5054108;28;20655;-63
2023/01/22 10:13:55;;;;;;;10.20;9.23;;;2.30;99.90;;;;;;5052023;28;20708;-64
2023/01/22 10:16:20;;;;;;;11.17;10.27;;;2.40;99.90;;;;;;5054692;28;20225;-64
2023/01/22 10:19:22;;;;;;;11.37;10.27;;;2.40;99.90;;;;;;5054278;28;20203;-64
2023/01/22 10:22:03;;;;;;;9.10;8.40;;;2.40;99.90;;;;;;5052576;28;20212;-64
2023/01/22 10:24:29;;;;;;;11.87;10.83;;;2.50;99.90;;;;;;5054039;28;20225;-64
2023/01/22 10:26:55;;;;;;;11.10;10.07;;;2.40;99.90;;;;;;5073005;28;20206;-63
2023/01/22 10:29:30;;;;;;;9.17;8.43;;;2.50;99.90;;;;;;5073929;28;20162;-63
2023/01/22 10:32:02;;;;;;;9.10;8.30;;;2.50;99.90;;;;;;5055222;28;20510;-64
2023/01/22 10:34:31;;;;;;;10.77;9.77;;;2.40;99.90;;;;;;5053894;28;20268;-63
2023/01/22 10:37:03;;;;;;;10.13;9.37;;;2.40;99.90;;;;;;5069084;28;20298;-62
2023/01/22 10:39:41;;;;;;;11.10;10.03;;;2.30;99.90;;;;;;5062018;28;20254;-61
2023/01/22 10:42:22;;;;;;;10.30;9.50;;;2.40;99.90;;;;;;5052844;28;20177;-63
2023/01/22 10:44:48;;;;;;;9.57;8.83;;;2.30;99.90;;;;;;5066599;28;20623;-63
2023/01/22 10:47:19;;;;;;;10.33;9.60;;;2.40;99.90;;;;;;5055565;28;20183;-64
2023/01/22 10:49:46;;;;;;;10.50;9.47;;;2.40;99.90;;;;;;5058278;28;20179;-64
2023/01/22 10:52:23;;;;;;;9.53;8.77;;;2.50;99.90;;;;;;5053773;28;20175;-64
2023/01/22 10:54:58;;;;;;;11.10;10.20;;;2.40;99.90;;;;;;5073587;28;20618;-64
2023/01/22 10:57:47;;;;;;;10.47;9.67;;;2.40;99.90;;;;;;5073497;28;20173;-63
2023/01/22 11:00:12;;;;;;;10.20;9.40;;;2.40;99.90;;;;;;5072113;28;20174;-64
2023/01/22 11:02:41;;;;;;;10.20;9.20;;;2.40;99.90;;;;;;5072353;28;20513;-64
2023/01/22 11:05:20;;;;;;;10.37;9.43;;;2.50;99.90;;;;;;5073557;28;20204;-63
2023/01/22 11:07:52;;;;;;;9.50;8.73;;;2.50;99.90;;;;;;5073656;28;20176;-63
2023/01/22 11:10:35;;;;;;;10.90;9.90;;;2.60;99.90;;;;;;5072486;28;20188;-65
2023/01/22 11:13:20;;;;;;;10.27;9.37;;;2.70;99.90;;;;;;5073686;28;20277;-65
2023/01/22 11:15:56;;;;;;;9.03;8.23;;;2.70;99.90;;;;;;5074086;28;20205;-64
2023/01/22 11:18:29;;;;;;;10.60;9.50;;;2.70;99.90;;;;;;5073776;28;20173;-64
2023/01/22 11:20:57;;;;;;;9.27;8.57;;;2.70;99.90;;;;;;5072892;28;20174;-65
2023/01/22 11:23:43;;;;;;;10.07;9.23;;;2.70;99.90;;;;;;5073349;28;20170;-64
2023/01/22 11:26:21;;;;;;;9.20;8.30;;;2.60;99.90;;;;;;5073320;28;20649;-64
2023/01/22 11:28:57;;;;;;;9.10;8.33;;;2.60;99.90;;;;;;5072985;28;20178;-63
2023/01/22 11:31:33;;;;;;;9.87;9.07;;;2.60;99.90;;;;;;5071498;28;20715;-64
2023/01/22 11:34:29;;;;;;;10.60;9.63;;;2.70;99.90;;;;;;5072859;28;20247;-64
2023/01/22 11:37:18;;;;;;;12.20;11.13;;;2.70;99.90;;;;;;5072852;28;20198;-64
2023/01/22 11:40:09;;;;;;;11.37;10.33;;;2.60;99.90;;;;;;5071429;28;20170;-64
2023/01/22 11:42:53;;;;;;;9.87;9.03;;;2.60;99.90;;;;;;5072807;28;20178;-64
2023/01/22 11:45:40;;;;;;;11.67;10.77;;;2.60;99.90;;;;;;5072801;28;20228;-65
2023/01/22 11:48:08;;;;;;;9.00;8.40;;;2.60;99.90;;;;;;5072619;28;20178;-64
2023/01/22 11:50:45;;;;;;;11.90;10.80;;;2.60;99.90;;;;;;5072379;28;20725;-65
2023/01/22 11:53:24;;;;;;;14.20;12.57;;;2.60;99.90;;;;;;5072405;28;20201;-64
2023/01/22 11:55:56;;;;;;;11.10;10.07;;;2.60;99.90;;;;;;5072619;28;20222;-64
2023/01/22 11:58:57;;;;;;;11.83;10.63;;;2.70;99.90;;;;;;5072563;28;20653;-64
2023/01/22 12:01:50;;;;;;;9.77;8.97;;;2.70;99.90;;;;;;5052528;28;20186;-64
2023/01/22 12:04:33;;;;;;;10.63;9.53;;;2.60;99.90;;;;;;5072348;28;20216;-65
2023/01/22 12:07:17;;;;;;;11.00;10.00;;;2.60;99.90;;;;;;5073270;28;20170;-64
2023/01/22 12:10:08;;;;;;;11.20;10.10;;;2.60;99.90;;;;;;5071935;28;20249;-65
2023/01/22 12:12:54;;;;;;;10.73;9.63;;;2.60;99.90;;;;;;5071855;28;20190;-66
2023/01/22 12:15:20;;;;;;;9.70;8.87;;;2.60;99.90;;;;;;5070886;28;20186;-63
2023/01/22 12:18:31;;;;;;;9.87;9.03;;;2.60;99.90;;;;;;5072251;28;20240;-63
2023/01/22 12:21:03;;;;;;;11.40;10.50;;;2.50;99.90;;;;;;5071498;28;20174;-61
2023/01/22 12:23:40;;;;;;;10.00;9.03;;;2.50;99.90;;;;;;5072166;28;20670;-63
2023/01/22 12:26:16;;;;;;;9.53;8.83;;;2.40;99.90;;;;;;5071986;28;20603;-61
2023/01/22 12:28:49;;;;;;;10.67;9.87;;;2.40;99.90;;;;;;5071913;28;20177;-63
2023/01/22 12:31:30;;;;;;;9.80;9.10;;;2.40;99.90;;;;;;5071804;28;20174;-63
2023/01/22 12:34:00;;;;;;;10.30;9.63;;;2.40;99.90;;;;;;5070457;28;20201;-63
2023/01/22 12:36:27;;;;;;;11.47;10.37;;;2.40;99.90;;;;;;5071982;28;20158;-63
2023/01/22 12:39:02;;;;;;;10.90;10.10;;;2.40;99.90;;;;;;5071602;28;20167;-65
2023/01/22 12:41:43;;;;;;;10.57;9.87;;;2.40;99.90;;;;;;5071685;28;20165;-65
2023/01/22 12:44:25;;;;;;;9.90;9.17;;;2.40;99.90;;;;;;5071621;28;20210;-64
2023/01/22 12:47:02;;;;;;;14.67;10.27;;;2.30;99.90;;;;;;5071646;28;20170;-65
2023/01/22 12:49:28;;;;;;;11.90;10.63;;;2.40;99.90;;;;;;5071550;28;20173;-63
2023/01/22 12:51:55;;;;;;;10.23;9.23;;;2.40;99.90;;;;;;5071599;28;20227;-62
2023/01/22 12:54:35;;;;;;;12.97;11.63;;;2.40;99.90;;;;;;5071562;28;20210;-62
2023/01/22 12:57:16;;;;;;;12.07;10.77;;;2.40;99.90;;;;;;5071555;28;20166;-61
2023/01/22 12:59:49;;;;;;;10.73;9.83;;;2.40;99.90;;;;;;5071461;28;20170;-63
2023/01/22 13:02:27;;;;;;;11.43;10.03;;;2.40;99.90;;;;;;5071581;28;20217;-61
2023/01/22 13:04:53;;;;;;;12.27;10.60;;;2.40;99.90;;;;;;5070797;28;20257;-63
2023/01/22 13:07:24;;;;;;;9.73;8.87;;;2.40;99.90;;;;;;5070390;28;20177;-64
2023/01/22 13:10:03;;;;;;;11.37;10.57;;;2.50;99.90;;;;;;5071222;28;20174;-63